Marco Polo — C6JZ7 — position and weather

sailwx.info

Track history (hours):
 
Tides and Currents Weather Stations Pressure Air Temp Water Temp Dewpoint Dewpoint Depression Visibility Wind Speed Wind Dir Waves Ship Positions

Marco Polo

Operator: Orient Lines

Last reported at 2019-Oct-22 23:30 UTC. Time now 2019-Oct-22 23:41 UTC.
Position N 57°22' W 001°30'.

Type: Ship. MMSI: 308691456.

Date/timePositionNaut miles runAvg speedWind from/ knotsBaromVisibWave heightAir tempDewpointWater temp
2019-Oct-22 23:30N 57°22' W 001°30'714.0
2019-Oct-22 23:00N 57°28' W 001°34'713.8
2019-Oct-22 22:31N 57°35' W 001°37'713.9
2019-Oct-22 22:00N 57°41' W 001°42'714.3
2019-Oct-22 21:30N 57°48' W 001°48'7514.9
2019-Oct-22 16:28N 58°58' W 002°39'714.9
2019-Oct-22 16:00N 59°01' W 002°51'4 7.5
2019-Oct-22 15:29N 59°00' W 002°58'0 0.1
2019-Oct-22 14:59N 59°00' W 002°58'0 0.0
2019-Oct-22 14:29N 59°00' W 002°58'0 0.0
2019-Oct-22 13:59N 59°00' W 002°58'0 0.0
2019-Oct-22 13:29N 59°00' W 002°58'0 0.0
2019-Oct-22 12:59N 59°00' W 002°58'0 0.0
2019-Oct-22 12:29N 59°00' W 002°58'0 0.0
2019-Oct-22 11:56N 59°00' W 002°58'0 0.0
2019-Oct-22 11:29N 59°00' W 002°58'0 0.0
2019-Oct-22 10:59N 59°00' W 002°58'0 0.0
2019-Oct-22 10:29N 59°00' W 002°58'0 0.0
2019-Oct-22 09:59N 59°00' W 002°58'0 0.0
2019-Oct-22 09:29N 59°00' W 002°58'0 0.0
2019-Oct-22 08:59N 59°00' W 002°58'0 0.0
2019-Oct-22 08:29N 59°00' W 002°58'0 0.0
2019-Oct-22 07:59N 59°00' W 002°58'0 0.0
2019-Oct-22 07:29N 59°00' W 002°58'0 0.0
2019-Oct-22 07:01N 59°00' W 002°58'1 1.2
2019-Oct-22 06:30N 59°00' W 002°57'4 7.2
2019-Oct-22 06:00N 59°01' W 002°50'5 9.3
2019-Oct-22 05:30N 59°00' W 002°41'612.2
2019-Oct-22 05:00N 59°00' W 002°30'  
2019-Oct-15 04:17N 62°03' W 006°39'411.1
2019-Oct-15 03:53N 62°01' W 006°31'411.6
2019-Oct-15 03:30N 61°57' W 006°25'611.7
2019-Oct-15 03:00N 61°53' W 006°16'27911.6
2019-Oct-14 02:57N 57°50' W 001°41'612.8
2019-Oct-14 02:30N 57°45' W 001°39'612.4
2019-Oct-14 02:00N 57°39' W 001°37'611.9
2019-Oct-14 01:30N 57°33' W 001°33'611.8
2019-Oct-14 01:01N 57°28' W 001°31'611.7
2019-Oct-14 00:31N 57°22' W 001°28'711.8
2019-Oct-13 23:57N 57°16' W 001°24'20113.2
2019-Oct-13 08:42N 54°06' E 000°36'1014.2
2019-Oct-13 07:59N 53°57' E 000°42'1114.0
2019-Oct-13 07:14N 53°47' E 000°47'2312.3
2019-Oct-13 05:23N 53°26' E 001°04'411.3
2019-Oct-13 05:00N 53°23' E 001°07'611.9
2019-Oct-13 04:30N 53°18' E 001°13'612.2
2019-Oct-13 04:00N 53°13' E 001°20'713.1
2019-Oct-13 03:30N 53°09' E 001°28'713.8
2019-Oct-13 03:00N 53°04' E 001°36'714.2
2019-Oct-13 02:31N 52°60' E 001°46'714.7
2019-Oct-13 02:01N 52°57' E 001°57'714.4
2019-Oct-13 01:31N 52°53' E 002°07'714.7
2019-Oct-13 01:00N 52°46' E 002°12'714.0
2019-Oct-13 00:31N 52°39' E 002°11'714.1
2019-Oct-13 00:00N 52°32' E 002°08'  
Track history (hours):
 
Tides and Currents Weather Stations Pressure Air Temp Water Temp Dewpoint Dewpoint Depression Visibility Wind Speed Wind Dir Waves Ship Positions

Marco Polo

Operator: Orient Lines

Last reported at 2019-Oct-22 23:30 UTC. Time now 2019-Oct-22 23:41 UTC.
Position N 57°22' W 001°30'.

Type: Ship. MMSI: 308691456.

Date/timePositionNaut miles runAvg speedWind from/ knotsBaromVisibWave heightAir tempDewpointWater temp
2019-Oct-22 23:30N 57°22' W 001°30'714.0
2019-Oct-22 23:00N 57°28' W 001°34'713.8
2019-Oct-22 22:31N 57°35' W 001°37'713.9
2019-Oct-22 22:00N 57°41' W 001°42'714.3
2019-Oct-22 21:30N 57°48' W 001°48'7514.9
2019-Oct-22 16:28N 58°58' W 002°39'714.9
2019-Oct-22 16:00N 59°01' W 002°51'4 7.5
2019-Oct-22 15:29N 59°00' W 002°58'0 0.1
2019-Oct-22 14:59N 59°00' W 002°58'0 0.0
2019-Oct-22 14:29N 59°00' W 002°58'0 0.0
2019-Oct-22 13:59N 59°00' W 002°58'0 0.0
2019-Oct-22 13:29N 59°00' W 002°58'0 0.0
2019-Oct-22 12:59N 59°00' W 002°58'0 0.0
2019-Oct-22 12:29N 59°00' W 002°58'0 0.0
2019-Oct-22 11:56N 59°00' W 002°58'0 0.0
2019-Oct-22 11:29N 59°00' W 002°58'0 0.0
2019-Oct-22 10:59N 59°00' W 002°58'0 0.0
2019-Oct-22 10:29N 59°00' W 002°58'0 0.0
2019-Oct-22 09:59N 59°00' W 002°58'0 0.0
2019-Oct-22 09:29N 59°00' W 002°58'0 0.0
2019-Oct-22 08:59N 59°00' W 002°58'0 0.0
2019-Oct-22 08:29N 59°00' W 002°58'0 0.0
2019-Oct-22 07:59N 59°00' W 002°58'0 0.0
2019-Oct-22 07:29N 59°00' W 002°58'0 0.0
2019-Oct-22 07:01N 59°00' W 002°58'1 1.2
2019-Oct-22 06:30N 59°00' W 002°57'4 7.2
2019-Oct-22 06:00N 59°01' W 002°50'5 9.3
2019-Oct-22 05:30N 59°00' W 002°41'612.2
2019-Oct-22 05:00N 59°00' W 002°30'  
2019-Oct-15 04:17N 62°03' W 006°39'411.1
2019-Oct-15 03:53N 62°01' W 006°31'411.6
2019-Oct-15 03:30N 61°57' W 006°25'611.7
2019-Oct-15 03:00N 61°53' W 006°16'27911.6
2019-Oct-14 02:57N 57°50' W 001°41'612.8
2019-Oct-14 02:30N 57°45' W 001°39'612.4
2019-Oct-14 02:00N 57°39' W 001°37'611.9
2019-Oct-14 01:30N 57°33' W 001°33'611.8
2019-Oct-14 01:01N 57°28' W 001°31'611.7
2019-Oct-14 00:31N 57°22' W 001°28'711.8
2019-Oct-13 23:57N 57°16' W 001°24'20113.2
2019-Oct-13 08:42N 54°06' E 000°36'1014.2
2019-Oct-13 07:59N 53°57' E 000°42'1114.0
2019-Oct-13 07:14N 53°47' E 000°47'2312.3
2019-Oct-13 05:23N 53°26' E 001°04'411.3
2019-Oct-13 05:00N 53°23' E 001°07'611.9
2019-Oct-13 04:30N 53°18' E 001°13'612.2
2019-Oct-13 04:00N 53°13' E 001°20'713.1
2019-Oct-13 03:30N 53°09' E 001°28'713.8
2019-Oct-13 03:00N 53°04' E 001°36'714.2
2019-Oct-13 02:31N 52°60' E 001°46'714.7
2019-Oct-13 02:01N 52°57' E 001°57'714.4
2019-Oct-13 01:31N 52°53' E 002°07'714.7
2019-Oct-13 01:00N 52°46' E 002°12'714.0
2019-Oct-13 00:31N 52°39' E 002°11'714.1
2019-Oct-13 00:00N 52°32' E 002°08'  

Dump ship's entire track history